Zeigler, IL (62999)

12:51 PM CDT on July 26, 2016 (GMT -0500)
Off the circle | | Change Station

Elev 390 ft 37.90 °N, 89.05 °W | Updated 3 minutes ago

Mostly Cloudy
Mostly Cloudy
86.2 °F
Feels Like 102 °F
N
0.0
Wind Variable Wind from NE

Today
High -- | Low -- °F
--% Chance of Precip.
Yesterday
High -- | Low -- °F
Precip. -- in
Pressure 30.01 in
Visibility 10.0 miles
Clouds Mostly Cloudy 3400 ft
Mostly Cloudy 12000 ft
Heat Index 102 °F
Dew Point 80 °F
Humidity 83%
Rainfall 0.00 in
Snow Depth Not available.
5:54 AM 8:10 PM
Waning Gibbous, 52% visible
METAR KMWA 261748Z 35005KT 10SM BKN034 BKN120 30/25 A3001
Pressure 30.01 in
Visibility 10.0 miles
Clouds Mostly Cloudy 3400 ft
Mostly Cloudy 12000 ft
Heat Index 102 °F
Dew Point 80 °F
Humidity 83%
Rainfall 0.00 in
Snow Depth Not available.
5:54 AM 8:10 PM
Waning Gibbous, 52% visible
METAR KMWA 261748Z 35005KT 10SM BKN034 BKN120 30/25 A3001

10-Day Weather Forecast

Almanac

Astronomy

Jul. 26, 2016 Rise Set
Actual Time
Civil Twilight
Nautical Twilight
Astronomical Twilight
Moon
Length of Visible Light
Length of Day
Tomorrow will be .
, % of the Moon is Illuminated

Today's Extremes

State Highs State Lows

Community

WunderPhotos

Upload Photos

1,927,650 photos uploaded!

WunderBlog® & News

Nearby

Air Quality

  Air Quality AQ Index Pollutant
Not available.

Snow Depth

Station Depth Elevation

Earthquake Activity

City Distance Mag. Time & Date
Minimum magnitude displayed is 2.5.

Coastal Water Temperatures

Place Temperature

Stations

Nearby Weather Stations

Station Location Temp. Windchill Dew Point Humidity Wind Precip. Elev Updated Type
                   

Watches & Warnings

There are currently no watches in effect.